KCVG Airport Diagram

We have created a template for each of the higher traffic airports in the vZID airspace. They include KCMH, KCRW, KCVG, KDAY, KIND, KLEX and KSDF. You wil find usefull information including the airport diagram, weather, and specific airport procedures.

KCVG Weather

[Source: ADDS]
METAR
KCVG 241522Z 34009KT 1 1/2SM -RA BR SCT007 OVC024 09/08 A3012 RMK AO2 SFC VIS 2 P0001 T00890083 =
TAF
KCVG 241508Z 2415/2518 04011KT P6SM VCSH FEW005 OVC012 TEMPO 2415/2418 4SM -RA FM242000 09011KT P6SM VCSH OVC022 FM250000 15012KT 5SM -RA OVC025 FM250200 14010KT 4SM -SHRA VCTS OVC020CB FM250600 20015G26KT 5SM -SHRA VCTS OVC040CB FM250900 23015G28KT P6SM BKN030 FM251100 25015G23KT P6SM BKN250 =

KCVG Operations

Calm Wind Configuration is Landing runways 36C and 36R, departing runway 27.

You can expect  this configuration up to and including a 10 knot tailwind.

The Center runway is the old 18R/36L in the default scenery. Additionally, runway 9/27 was lengthened to 12,000 feet when the west runway (18R/36L) was added.

Where parallel taxiways exist, inner taxiway is used by inbound traffic and outer taxiway is used by outbound traffic.

FDX & UPS use the ramp area at Terminal 1.

New Scenery is available at FlightSim.com.

On initial contact, arriving aircraft should notify the the controller which scenery they have.

 

JSN Epic template designed by JoomlaShine.com